sensor_id;sensor_type;location;lat;lon;timestamp;pressure;altitude;pressure_sealevel;temperature;humidity
10115;BME280;5097;43.260;27.812;2023-01-30T00:00:06;100557.81;;;1.63;63.86
10115;BME280;5097;43.260;27.812;2023-01-30T00:02:50;100637.28;;;2.09;63.08
10115;BME280;5097;43.260;27.812;2023-01-30T00:05:34;100640.00;;;2.00;62.53
10115;BME280;5097;43.260;27.812;2023-01-30T00:08:18;100639.22;;;1.92;64.12
10115;BME280;5097;43.260;27.812;2023-01-30T00:11:03;100643.38;;;2.08;63.43
10115;BME280;5097;43.260;27.812;2023-01-30T00:13:49;100635.63;;;2.00;64.26
10115;BME280;5097;43.260;27.812;2023-01-30T00:16:33;100621.69;;;2.08;63.77
10115;BME280;5097;43.260;27.812;2023-01-30T00:19:17;100636.31;;;2.21;63.46
10115;BME280;5097;43.260;27.812;2023-01-30T00:22:01;100618.22;;;2.06;64.12
10115;BME280;5097;43.260;27.812;2023-01-30T00:24:45;100631.97;;;2.17;64.58
10115;BME280;5097;43.260;27.812;2023-01-30T00:27:29;100623.31;;;2.16;63.56
10115;BME280;5097;43.260;27.812;2023-01-30T00:30:15;100630.13;;;2.28;62.47
10115;BME280;5097;43.260;27.812;2023-01-30T00:32:59;100623.16;;;2.30;63.42
10115;BME280;5097;43.260;27.812;2023-01-30T00:35:44;100626.69;;;2.26;62.58
10115;BME280;5097;43.260;27.812;2023-01-30T00:38:28;100629.41;;;2.14;62.90
10115;BME280;5097;43.260;27.812;2023-01-30T00:41:12;100623.34;;;2.13;63.14
10115;BME280;5097;43.260;27.812;2023-01-30T00:43:56;100621.69;;;2.08;62.44
10115;BME280;5097;43.260;27.812;2023-01-30T00:46:59;100573.28;;;1.82;63.00
10115;BME280;5097;43.260;27.812;2023-01-30T00:49:50;100625.22;;;2.00;62.07
10115;BME280;5097;43.260;27.812;2023-01-30T00:52:34;100619.00;;;2.14;62.71
10115;BME280;5097;43.260;27.812;2023-01-30T00:55:17;100618.22;;;2.06;63.34
10115;BME280;5097;43.260;27.812;2023-01-30T00:58:01;100616.50;;;2.03;63.02
10115;BME280;5097;43.260;27.812;2023-01-30T01:00:45;100616.66;;;1.86;63.81
10115;BME280;5097;43.260;27.812;2023-01-30T01:03:31;100585.50;;;1.74;63.69
10115;BME280;5097;43.260;27.812;2023-01-30T01:06:15;100614.69;;;2.10;64.31
10115;BME280;5097;43.260;27.812;2023-01-30T01:09:00;100614.69;;;2.10;64.47
10115;BME280;5097;43.260;27.812;2023-01-30T01:11:44;100616.28;;;2.23;63.96
10115;BME280;5097;43.260;27.812;2023-01-30T01:14:28;100611.03;;;2.29;63.94
10115;BME280;5097;43.260;27.812;2023-01-30T01:17:13;100607.50;;;2.33;64.30
10115;BME280;5097;43.260;27.812;2023-01-30T01:19:58;100603.94;;;2.41;64.05
10115;BME280;5097;43.260;27.812;2023-01-30T01:22:44;100600.53;;;2.32;64.48
10115;BME280;5097;43.260;27.812;2023-01-30T01:25:31;100603.34;;;2.15;64.08
10115;BME280;5097;43.260;27.812;2023-01-30T01:28:14;100612.84;;;2.21;63.28
10115;BME280;5097;43.260;27.812;2023-01-30T01:31:07;100598.00;;;2.26;63.96
10115;BME280;5097;43.260;27.812;2023-01-30T01:33:52;100591.81;;;2.37;63.31
10115;BME280;5097;43.260;27.812;2023-01-30T01:36:37;100598.81;;;2.34;63.80
10115;BME280;5097;43.260;27.812;2023-01-30T01:39:36;100590.19;;;2.28;62.89
10115;BME280;5097;43.260;27.812;2023-01-30T01:42:38;100581.59;;;2.18;64.56
10115;BME280;5097;43.260;27.812;2023-01-30T01:45:23;100601.41;;;2.34;64.11
10115;BME280;5097;43.260;27.812;2023-01-30T01:48:11;100603.28;;;2.22;63.67
10115;BME280;5097;43.260;27.812;2023-01-30T01:51:02;100585.06;;;2.17;63.90
10115;BME280;5097;43.260;27.812;2023-01-30T01:53:53;100573.81;;;2.15;63.78
10115;BME280;5097;43.260;27.812;2023-01-30T01:56:41;100603.22;;;2.25;63.47
10115;BME280;5097;43.260;27.812;2023-01-30T01:59:32;100598.03;;;2.23;64.93
10115;BME280;5097;43.260;27.812;2023-01-30T02:02:18;100598.00;;;2.26;65.30
10115;BME280;5097;43.260;27.812;2023-01-30T02:05:05;100596.44;;;2.11;64.78
10115;BME280;5097;43.260;27.812;2023-01-30T02:07:58;100591.28;;;2.04;64.89
10115;BME280;5097;43.260;27.812;2023-01-30T02:10:49;100589.41;;;2.18;65.40
10115;BME280;5097;43.260;27.812;2023-01-30T02:13:35;100569.75;;;1.89;64.32
10115;BME280;5097;43.260;27.812;2023-01-30T02:16:19;100581.06;;;1.83;65.07
10115;BME280;5097;43.260;27.812;2023-01-30T02:19:20;100592.19;;;1.99;65.21
10115;BME280;5097;43.260;27.812;2023-01-30T02:22:16;100578.97;;;2.18;66.00
10115;BME280;5097;43.260;27.812;2023-01-30T02:25:33;100538.72;;;1.67;64.18
10115;BME280;5097;43.260;27.812;2023-01-30T02:31:40;100557.13;;;1.46;65.29
10115;BME280;5097;43.260;27.812;2023-01-30T02:34:37;100581.44;;;1.45;66.37
10115;BME280;5097;43.260;27.812;2023-01-30T02:37:35;100577.78;;;1.64;66.82
10115;BME280;5097;43.260;27.812;2023-01-30T02:40:35;100582.25;;;1.50;66.38
10115;BME280;5097;43.260;27.812;2023-01-30T02:43:27;100577.19;;;1.34;67.35
10115;BME280;5097;43.260;27.812;2023-01-30T02:46:18;100580.66;;;1.33;67.89
10115;BME280;5097;43.260;27.812;2023-01-30T02:49:07;100576.31;;;1.34;68.25
10115;BME280;5097;43.260;27.812;2023-01-30T02:51:55;100574.44;;;1.52;68.25
10115;BME280;5097;43.260;27.812;2023-01-30T02:54:40;100575.53;;;1.23;68.40
10115;BME280;5097;43.260;27.812;2023-01-30T02:57:25;100550.38;;;1.20;68.87
10115;BME280;5097;43.260;27.812;2023-01-30T03:00:17;100572.56;;;1.66;68.47
10115;BME280;5097;43.260;27.812;2023-01-30T03:03:25;100570.78;;;1.70;67.03
10115;BME280;5097;43.260;27.812;2023-01-30T03:06:32;100541.97;;;0.87;68.45
10115;BME280;5097;43.260;27.812;2023-01-30T03:09:29;100556.50;;;1.14;69.50
10115;BME280;5097;43.260;27.812;2023-01-30T03:12:27;100574.53;;;1.41;69.04
10115;BME280;5097;43.260;27.812;2023-01-30T03:15:18;100574.44;;;1.52;69.79
10115;BME280;5097;43.260;27.812;2023-01-30T03:18:05;100578.03;;;1.38;68.96
10115;BME280;5097;43.260;27.812;2023-01-30T03:20:49;100573.69;;;1.39;69.24
10115;BME280;5097;43.260;27.812;2023-01-30T03:23:35;100574.31;;;1.64;68.81
10115;BME280;5097;43.260;27.812;2023-01-30T03:26:23;100578.78;;;1.54;68.64
10115;BME280;5097;43.260;27.812;2023-01-30T03:29:08;100569.31;;;1.39;69.07
10115;BME280;5097;43.260;27.812;2023-01-30T03:31:52;100575.38;;;1.43;69.28
10115;BME280;5097;43.260;27.812;2023-01-30T03:34:36;100569.59;;;1.04;70.00
10115;BME280;5097;43.260;27.812;2023-01-30T03:37:20;100549.53;;;1.16;69.88
10115;BME280;5097;43.260;27.812;2023-01-30T03:40:07;100569.50;;;1.17;70.06
10115;BME280;5097;43.260;27.812;2023-01-30T03:42:52;100565.34;;;0.90;70.27
10115;BME280;5097;43.260;27.812;2023-01-30T03:45:36;100564.50;;;0.91;70.57
10115;BME280;5097;43.260;27.812;2023-01-30T03:48:20;100560.31;;;0.62;71.78
10115;BME280;5097;43.260;27.812;2023-01-30T03:51:04;100562.00;;;0.66;71.44
10115;BME280;5097;43.260;27.812;2023-01-30T03:53:48;100558.53;;;0.69;71.90
10115;BME280;5097;43.260;27.812;2023-01-30T03:56:33;100558.44;;;0.86;71.98
10115;BME280;5097;43.260;27.812;2023-01-30T03:59:17;100556.53;;;1.08;71.23
10115;BME280;5097;43.260;27.812;2023-01-30T04:02:08;100513.28;;;0.95;71.41
10115;BME280;5097;43.260;27.812;2023-01-30T04:04:52;100555.47;;;1.37;70.94
10115;BME280;5097;43.260;27.812;2023-01-30T04:07:36;100542.72;;;1.05;71.86
10115;BME280;5097;43.260;27.812;2023-01-30T04:10:20;100540.09;;;1.03;70.57
10115;BME280;5097;43.260;27.812;2023-01-30T04:13:05;100554.69;;;1.29;70.44
10115;BME280;5097;43.260;27.812;2023-01-30T04:15:49;100556.28;;;1.44;70.28
10115;BME280;5097;43.260;27.812;2023-01-30T04:18:53;100557.28;;;1.27;70.02
10115;BME280;5097;43.260;27.812;2023-01-30T04:21:39;100550.47;;;1.14;71.12
10115;BME280;5097;43.260;27.812;2023-01-30T04:24:23;100545.91;;;1.38;71.12
10115;BME280;5097;43.260;27.812;2023-01-30T04:27:07;100559.78;;;1.37;71.12
10115;BME280;5097;43.260;27.812;2023-01-30T04:30:01;100559.78;;;1.40;70.88
10115;BME280;5097;43.260;27.812;2023-01-30T04:32:46;100552.38;;;0.89;71.85
10115;BME280;5097;43.260;27.812;2023-01-30T04:35:30;100531.69;;;0.65;72.92
10115;BME280;5097;43.260;27.812;2023-01-30T04:38:14;100514.50;;;0.37;73.44
10115;BME280;5097;43.260;27.812;2023-01-30T04:40:58;100561.06;;;0.81;73.46
10115;BME280;5097;43.260;27.812;2023-01-30T04:43:44;100553.13;;;1.02;74.33
10115;BME280;5097;43.260;27.812;2023-01-30T04:46:45;100566.81;;;1.31;72.80
10115;BME280;5097;43.260;27.812;2023-01-30T04:49:30;100554.50;;;1.46;71.91
10115;BME280;5097;43.260;27.812;2023-01-30T04:52:15;100560.59;;;1.48;71.63
10115;BME280;5097;43.260;27.812;2023-01-30T04:54:58;100564.28;;;1.17;71.67
10115;BME280;5097;43.260;27.812;2023-01-30T04:57:44;100556.47;;;1.22;71.28
10115;BME280;5097;43.260;27.812;2023-01-30T05:00:28;100554.66;;;1.30;71.60
10115;BME280;5097;43.260;27.812;2023-01-30T05:03:16;100553.78;;;1.28;71.84
10115;BME280;5097;43.260;27.812;2023-01-30T05:06:00;100558.00;;;1.45;71.61
10115;BME280;5097;43.260;27.812;2023-01-30T05:08:47;100562.22;;;1.57;71.57
10115;BME280;5097;43.260;27.812;2023-01-30T05:11:31;100550.84;;;1.67;71.48
10115;BME280;5097;43.260;27.812;2023-01-30T05:14:15;100555.41;;;1.43;71.55
10115;BME280;5097;43.260;27.812;2023-01-30T05:16:59;100550.13;;;1.51;71.59
10115;BME280;5097;43.260;27.812;2023-01-30T05:19:44;100564.84;;;1.55;71.89
10115;BME280;5097;43.260;27.812;2023-01-30T05:22:28;100554.44;;;1.58;72.61
10115;BME280;5097;43.260;27.812;2023-01-30T05:25:13;100564.97;;;1.43;72.67
10115;BME280;5097;43.260;27.812;2023-01-30T05:27:57;100559.53;;;1.66;72.26
10115;BME280;5097;43.260;27.812;2023-01-30T05:30:41;100557.00;;;1.60;72.50
10115;BME280;5097;43.260;27.812;2023-01-30T05:33:28;100553.63;;;1.52;73.53
10115;BME280;5097;43.260;27.812;2023-01-30T05:36:14;100546.59;;;1.60;73.29
10115;BME280;5097;43.260;27.812;2023-01-30T05:38:59;100554.31;;;1.66;74.26
10115;BME280;5097;43.260;27.812;2023-01-30T05:41:43;100555.16;;;1.74;74.86
10115;BME280;5097;43.260;27.812;2023-01-30T05:44:27;100564.53;;;1.86;75.15
10115;BME280;5097;43.260;27.812;2023-01-30T05:47:10;100555.81;;;1.90;75.07
10115;BME280;5097;43.260;27.812;2023-01-30T05:49:54;100559.22;;;1.98;74.63
10115;BME280;5097;43.260;27.812;2023-01-30T05:52:40;100558.75;;;1.58;72.06
10115;BME280;5097;43.260;27.812;2023-01-30T05:55:24;100568.56;;;1.26;73.19
10115;BME280;5097;43.260;27.812;2023-01-30T05:58:07;100556.34;;;1.36;72.59
10115;BME280;5097;43.260;27.812;2023-01-30T06:00:51;100528.81;;;1.09;72.90
10115;BME280;5097;43.260;27.812;2023-01-30T06:03:35;100563.50;;;1.08;73.92
10115;BME280;5097;43.260;27.812;2023-01-30T06:06:19;100551.25;;;1.19;73.42
10115;BME280;5097;43.260;27.812;2023-01-30T06:09:05;100556.63;;;0.96;73.84
10115;BME280;5097;43.260;27.812;2023-01-30T06:11:49;100559.91;;;1.27;74.10
10115;BME280;5097;43.260;27.812;2023-01-30T06:14:34;100563.66;;;0.83;75.17
10115;BME280;5097;43.260;27.812;2023-01-30T06:17:18;100560.00;;;1.12;74.05
10115;BME280;5097;43.260;27.812;2023-01-30T06:20:02;100556.38;;;1.31;74.13
10115;BME280;5097;43.260;27.812;2023-01-30T06:22:46;100554.50;;;1.49;72.83
10115;BME280;5097;43.260;27.812;2023-01-30T06:25:32;100554.38;;;1.61;73.08
10115;BME280;5097;43.260;27.812;2023-01-30T06:28:17;100514.09;;;1.05;73.44
10115;BME280;5097;43.260;27.812;2023-01-30T06:31:01;100545.88;;;1.39;73.04
10115;BME280;5097;43.260;27.812;2023-01-30T06:33:45;100542.50;;;1.29;73.73
10115;BME280;5097;43.260;27.812;2023-01-30T06:36:30;100546.53;;;1.67;73.61
10115;BME280;5097;43.260;27.812;2023-01-30T06:39:14;100545.41;;;1.89;73.30
10115;BME280;5097;43.260;27.812;2023-01-30T06:42:00;100546.25;;;1.92;73.69
10115;BME280;5097;43.260;27.812;2023-01-30T06:44:43;100546.03;;;2.12;74.26
10115;BME280;5097;43.260;27.812;2023-01-30T06:47:27;100534.50;;;2.30;73.38
10115;BME280;5097;43.260;27.812;2023-01-30T06:50:13;100542.38;;;2.27;72.80
10115;BME280;5097;43.260;27.812;2023-01-30T06:52:57;100546.44;;;2.50;72.55
10115;BME280;5097;43.260;27.812;2023-01-30T06:55:41;100547.38;;;2.46;72.04
10115;BME280;5097;43.260;27.812;2023-01-30T06:58:26;100518.72;;;2.43;71.75
10115;BME280;5097;43.260;27.812;2023-01-30T07:01:10;100537.50;;;2.66;71.90
10115;BME280;5097;43.260;27.812;2023-01-30T07:03:54;100523.78;;;2.55;71.09
10115;BME280;5097;43.260;27.812;2023-01-30T07:06:38;100534.09;;;2.64;70.66
10115;BME280;5097;43.260;27.812;2023-01-30T07:09:22;100522.91;;;2.53;71.51
10115;BME280;5097;43.260;27.812;2023-01-30T07:12:06;100514.28;;;2.49;71.93
10115;BME280;5097;43.260;27.812;2023-01-30T07:14:51;100534.13;;;2.61;72.34
10115;BME280;5097;43.260;27.812;2023-01-30T07:17:35;100511.03;;;2.33;72.29
10115;BME280;5097;43.260;27.812;2023-01-30T07:20:19;100529.19;;;2.40;73.42
10115;BME280;5097;43.260;27.812;2023-01-30T07:23:03;100527.69;;;2.20;73.58
10115;BME280;5097;43.260;27.812;2023-01-30T07:25:47;100533.78;;;2.21;73.93
10115;BME280;5097;43.260;27.812;2023-01-30T07:28:30;100504.34;;;2.11;74.16
10115;BME280;5097;43.260;27.812;2023-01-30T07:31:16;100507.00;;;2.09;74.23
10115;BME280;5097;43.260;27.812;2023-01-30T07:34:00;100538.19;;;2.14;74.26
10115;BME280;5097;43.260;27.812;2023-01-30T07:36:44;100543.41;;;2.14;74.30
10115;BME280;5097;43.260;27.812;2023-01-30T07:39:28;100543.25;;;2.29;75.05
10115;BME280;5097;43.260;27.812;2023-01-30T07:42:12;100524.09;;;2.30;74.89
10115;BME280;5097;43.260;27.812;2023-01-30T07:44:56;100525.94;;;2.22;75.18
10115;BME280;5097;43.260;27.812;2023-01-30T07:47:41;100476.63;;;2.04;74.07
10115;BME280;5097;43.260;27.812;2023-01-30T07:50:26;100482.63;;;2.10;73.89
10115;BME280;5097;43.260;27.812;2023-01-30T07:53:11;100475.34;;;2.35;74.00
10115;BME280;5097;43.260;27.812;2023-01-30T07:55:56;100516.75;;;2.60;73.42
10115;BME280;5097;43.260;27.812;2023-01-30T07:58:40;100512.34;;;2.65;74.17
10115;BME280;5097;43.260;27.812;2023-01-30T08:01:24;100444.41;;;2.11;73.90
10115;BME280;5097;43.260;27.812;2023-01-30T08:04:10;100517.44;;;2.75;73.30
10115;BME280;5097;43.260;27.812;2023-01-30T08:06:54;100508.53;;;2.88;72.69
10115;BME280;5097;43.260;27.812;2023-01-30T08:09:38;100472.75;;;2.93;72.61
10115;BME280;5097;43.260;27.812;2023-01-30T08:12:22;100508.25;;;3.05;72.59
10115;BME280;5097;43.260;27.812;2023-01-30T08:15:07;100468.34;;;2.97;72.02
10115;BME280;5097;43.260;27.812;2023-01-30T08:17:53;100467.25;;;3.12;70.87
10115;BME280;5097;43.260;27.812;2023-01-30T08:20:39;100491.03;;;3.46;70.51
10115;BME280;5097;43.260;27.812;2023-01-30T08:23:24;100456.56;;;3.26;70.12
10115;BME280;5097;43.260;27.812;2023-01-30T08:26:08;100460.50;;;3.50;69.87
10115;BME280;5097;43.260;27.812;2023-01-30T08:28:52;100456.53;;;3.74;69.84
10115;BME280;5097;43.260;27.812;2023-01-30T08:31:37;100456.97;;;3.96;68.50
10115;BME280;5097;43.260;27.812;2023-01-30T08:34:21;100476.88;;;4.03;67.61
10115;BME280;5097;43.260;27.812;2023-01-30T08:37:06;100437.81;;;3.96;67.44
10115;BME280;5097;43.260;27.812;2023-01-30T08:39:51;100435.50;;;3.82;66.85
10115;BME280;5097;43.260;27.812;2023-01-30T08:42:35;100439.16;;;3.26;66.63
10115;BME280;5097;43.260;27.812;2023-01-30T08:45:19;100437.00;;;3.48;68.23
10115;BME280;5097;43.260;27.812;2023-01-30T08:48:04;100472.81;;;3.87;67.24
10115;BME280;5097;43.260;27.812;2023-01-30T08:50:50;100396.41;;;3.76;67.59
10115;BME280;5097;43.260;27.812;2023-01-30T08:53:36;100432.84;;;4.24;67.06
10115;BME280;5097;43.260;27.812;2023-01-30T08:56:20;100421.97;;;4.43;64.64
10115;BME280;5097;43.260;27.812;2023-01-30T08:59:04;100432.09;;;4.57;63.98
10115;BME280;5097;43.260;27.812;2023-01-30T09:01:49;100456.50;;;4.95;63.61
10115;BME280;5097;43.260;27.812;2023-01-30T09:04:33;100442.84;;;5.51;63.76
10115;BME280;5097;43.260;27.812;2023-01-30T09:07:17;100435.72;;;5.56;62.42
10115;BME280;5097;43.260;27.812;2023-01-30T09:10:03;100430.56;;;5.53;62.58
10115;BME280;5097;43.260;27.812;2023-01-30T09:12:48;100433.75;;;4.98;64.68
10115;BME280;5097;43.260;27.812;2023-01-30T09:15:32;100388.88;;;5.12;63.98
10115;BME280;5097;43.260;27.812;2023-01-30T09:18:16;100378.44;;;5.11;63.66
10115;BME280;5097;43.260;27.812;2023-01-30T09:21:04;100418.88;;;5.96;61.59
10115;BME280;5097;43.260;27.812;2023-01-30T09:23:48;100379.00;;;5.22;63.30
10115;BME280;5097;43.260;27.812;2023-01-30T09:26:34;100403.22;;;4.97;64.21
10115;BME280;5097;43.260;27.812;2023-01-30T09:29:18;100404.38;;;4.85;65.49
10115;BME280;5097;43.260;27.812;2023-01-30T09:32:02;100409.34;;;4.96;63.10
10115;BME280;5097;43.260;27.812;2023-01-30T09:34:46;100395.69;;;4.85;64.85
10115;BME280;5097;43.260;27.812;2023-01-30T09:37:30;100402.47;;;5.27;64.31
10115;BME280;5097;43.260;27.812;2023-01-30T09:40:15;100395.53;;;5.24;65.80
10115;BME280;5097;43.260;27.812;2023-01-30T09:43:12;100389.94;;;5.03;65.01
10115;BME280;5097;43.260;27.812;2023-01-30T09:46:17;100372.06;;;4.52;65.87
10115;BME280;5097;43.260;27.812;2023-01-30T09:49:09;100367.97;;;4.40;66.61
10115;BME280;5097;43.260;27.812;2023-01-30T09:52:02;100374.28;;;4.67;66.64
10115;BME280;5097;43.260;27.812;2023-01-30T09:54:57;100367.25;;;4.69;66.49
10115;BME280;5097;43.260;27.812;2023-01-30T09:57:46;100363.28;;;4.89;65.74
10115;BME280;5097;43.260;27.812;2023-01-30T10:00:34;100334.16;;;5.01;66.06
10115;BME280;5097;43.260;27.812;2023-01-30T10:03:19;100352.34;;;5.06;68.38
10115;BME280;5097;43.260;27.812;2023-01-30T10:06:09;100303.63;;;5.00;68.68
10115;BME280;5097;43.260;27.812;2023-01-30T10:09:00;100334.94;;;5.68;65.30
10115;BME280;5097;43.260;27.812;2023-01-30T10:11:58;100329.47;;;6.06;63.27
10115;BME280;5097;43.260;27.812;2023-01-30T10:18:17;100317.53;;;5.65;62.86
10115;BME280;5097;43.260;27.812;2023-01-30T10:21:17;100305.78;;;5.79;64.21
10115;BME280;5097;43.260;27.812;2023-01-30T10:24:13;100295.22;;;5.50;63.34
10115;BME280;5097;43.260;27.812;2023-01-30T10:27:01;100299.53;;;5.53;63.62
10115;BME280;5097;43.260;27.812;2023-01-30T10:29:49;100280.97;;;5.61;63.63
10115;BME280;5097;43.260;27.812;2023-01-30T10:32:41;100301.22;;;6.14;61.29
10115;BME280;5097;43.260;27.812;2023-01-30T10:35:31;100294.81;;;6.23;59.44
10115;BME280;5097;43.260;27.812;2023-01-30T10:38:19;100279.63;;;6.32;58.54
10115;BME280;5097;43.260;27.812;2023-01-30T10:41:11;100273.09;;;5.61;60.44
10115;BME280;5097;43.260;27.812;2023-01-30T10:44:00;100280.13;;;6.17;60.53
10115;BME280;5097;43.260;27.812;2023-01-30T10:46:55;100260.44;;;6.30;60.41
10115;BME280;5097;43.260;27.812;2023-01-30T10:49:49;100260.69;;;6.49;58.37
10115;BME280;5097;43.260;27.812;2023-01-30T10:52:41;100256.22;;;5.99;60.82
10115;BME280;5097;43.260;27.812;2023-01-30T10:55:34;100244.72;;;6.30;59.05
10115;BME280;5097;43.260;27.812;2023-01-30T10:58:26;100246.44;;;6.04;60.12
10115;BME280;5097;43.260;27.812;2023-01-30T11:01:17;100246.44;;;6.04;58.88
10115;BME280;5097;43.260;27.812;2023-01-30T11:04:18;100237.63;;;6.59;58.46
10115;BME280;5097;43.260;27.812;2023-01-30T11:07:04;100234.69;;;5.88;59.79
10115;BME280;5097;43.260;27.812;2023-01-30T11:09:50;100233.09;;;6.11;58.18
10115;BME280;5097;43.260;27.812;2023-01-30T11:12:33;100220.22;;;6.04;59.17
10115;BME280;5097;43.260;27.812;2023-01-30T11:15:17;100216.25;;;6.45;59.27
10115;BME280;5097;43.260;27.812;2023-01-30T11:18:05;100206.38;;;5.99;58.37
10115;BME280;5097;43.260;27.812;2023-01-30T11:21:16;100202.94;;;6.24;57.50
10115;BME280;5097;43.260;27.812;2023-01-30T11:24:12;100194.25;;;5.95;58.39
10115;BME280;5097;43.260;27.812;2023-01-30T11:27:09;100193.38;;;6.23;57.62
10115;BME280;5097;43.260;27.812;2023-01-30T11:30:03;100185.06;;;5.82;57.48
10115;BME280;5097;43.260;27.812;2023-01-30T11:32:48;100177.88;;;5.88;57.56
10115;BME280;5097;43.260;27.812;2023-01-30T11:35:41;100055.66;;;5.32;59.00
10115;BME280;5097;43.260;27.812;2023-01-30T11:38:28;100179.41;;;5.67;60.13
10115;BME280;5097;43.260;27.812;2023-01-30T11:41:18;100175.06;;;5.10;59.05
10115;BME280;5097;43.260;27.812;2023-01-30T11:44:04;100180.16;;;4.84;60.56
10115;BME280;5097;43.260;27.812;2023-01-30T11:46:48;100170.03;;;5.60;59.88
10115;BME280;5097;43.260;27.812;2023-01-30T11:49:35;100153.06;;;5.15;59.11
10115;BME280;5097;43.260;27.812;2023-01-30T11:52:34;100158.84;;;4.98;59.30
10115;BME280;5097;43.260;27.812;2023-01-30T11:55:20;100138.84;;;4.94;59.81
10115;BME280;5097;43.260;27.812;2023-01-30T11:58:07;100156.81;;;4.77;61.04
10115;BME280;5097;43.260;27.812;2023-01-30T12:00:53;100134.97;;;5.08;60.30
10115;BME280;5097;43.260;27.812;2023-01-30T12:03:44;100147.03;;;5.42;56.99
10115;BME280;5097;43.260;27.812;2023-01-30T12:06:31;100142.44;;;4.92;58.64
10115;BME280;5097;43.260;27.812;2023-01-30T12:09:30;100145.75;;;4.98;58.95
10115;BME280;5097;43.260;27.812;2023-01-30T12:12:27;100136.63;;;5.40;57.35
10115;BME280;5097;43.260;27.812;2023-01-30T12:15:20;100133.84;;;5.45;57.49
10115;BME280;5097;43.260;27.812;2023-01-30T12:18:12;100125.91;;;5.75;57.46
10115;BME280;5097;43.260;27.812;2023-01-30T12:21:00;100128.56;;;6.00;56.80
10115;BME280;5097;43.260;27.812;2023-01-30T12:23:50;100125.53;;;5.30;57.75
10115;BME280;5097;43.260;27.812;2023-01-30T12:26:41;100128.81;;;5.39;57.24
10115;BME280;5097;43.260;27.812;2023-01-30T12:29:28;100114.28;;;5.28;57.48
10115;BME280;5097;43.260;27.812;2023-01-30T12:32:16;100114.25;;;5.83;58.01
10115;BME280;5097;43.260;27.812;2023-01-30T12:35:13;100101.94;;;5.85;57.17
10115;BME280;5097;43.260;27.812;2023-01-30T12:38:05;100099.34;;;5.84;57.19
10115;BME280;5097;43.260;27.812;2023-01-30T12:40:59;100097.16;;;5.71;57.11
10115;BME280;5097;43.260;27.812;2023-01-30T12:43:54;100060.56;;;5.68;55.92
10115;BME280;5097;43.260;27.812;2023-01-30T12:46:50;100080.91;;;5.87;55.75
10115;BME280;5097;43.260;27.812;2023-01-30T12:49:55;100079.41;;;5.53;58.30
10115;BME280;5097;43.260;27.812;2023-01-30T12:52:55;100083.59;;;5.05;59.72
10115;BME280;5097;43.260;27.812;2023-01-30T12:55:50;100077.09;;;4.89;60.66
10115;BME280;5097;43.260;27.812;2023-01-30T12:58:41;100075.75;;;5.03;61.82
10115;BME280;5097;43.260;27.812;2023-01-30T13:01:32;100070.50;;;5.03;61.62
10115;BME280;5097;43.260;27.812;2023-01-30T13:04:31;100065.94;;;4.82;61.21
10115;BME280;5097;43.260;27.812;2023-01-30T13:07:26;100071.56;;;4.69;62.54
10115;BME280;5097;43.260;27.812;2023-01-30T13:10:20;100057.84;;;4.61;62.03
10115;BME280;5097;43.260;27.812;2023-01-30T13:13:13;100078.28;;;4.17;62.72
10115;BME280;5097;43.260;27.812;2023-01-30T13:16:04;100064.22;;;4.21;63.45
10115;BME280;5097;43.260;27.812;2023-01-30T13:18:55;100074.44;;;4.60;62.63
10115;BME280;5097;43.260;27.812;2023-01-30T13:21:45;100080.03;;;4.78;61.70
10115;BME280;5097;43.260;27.812;2023-01-30T13:24:42;100045.75;;;4.57;61.11
10115;BME280;5097;43.260;27.812;2023-01-30T13:27:33;100074.59;;;4.24;62.09
10115;BME280;5097;43.260;27.812;2023-01-30T13:30:20;100067.63;;;4.23;62.18
10115;BME280;5097;43.260;27.812;2023-01-30T13:33:10;100078.69;;;4.01;61.84
10115;BME280;5097;43.260;27.812;2023-01-30T13:36:03;100022.41;;;3.88;61.43
10115;BME280;5097;43.260;27.812;2023-01-30T13:39:01;100061.53;;;4.54;62.03
10115;BME280;5097;43.260;27.812;2023-01-30T13:41:52;100040.91;;;4.13;59.51
10115;BME280;5097;43.260;27.812;2023-01-30T13:44:41;100049.38;;;4.53;60.68
10115;BME280;5097;43.260;27.812;2023-01-30T13:47:37;100049.31;;;4.23;60.46
10115;BME280;5097;43.260;27.812;2023-01-30T13:50:48;100039.13;;;4.15;61.37
10115;BME280;5097;43.260;27.812;2023-01-30T13:53:39;100050.16;;;4.25;61.78
10115;BME280;5097;43.260;27.812;2023-01-30T13:56:31;100011.06;;;3.56;62.04
10115;BME280;5097;43.260;27.812;2023-01-30T13:59:36;100037.28;;;3.86;61.36
10115;BME280;5097;43.260;27.812;2023-01-30T14:02:25;100030.75;;;4.32;61.24
10115;BME280;5097;43.260;27.812;2023-01-30T14:05:09;100000.88;;;3.80;61.12
10115;BME280;5097;43.260;27.812;2023-01-30T14:07:52;100030.66;;;4.06;61.93
10115;BME280;5097;43.260;27.812;2023-01-30T14:10:36;99977.94;;;3.91;61.54
10115;BME280;5097;43.260;27.812;2023-01-30T14:13:21;100025.47;;;3.73;63.14
10115;BME280;5097;43.260;27.812;2023-01-30T14:16:06;100023.66;;;3.75;63.29
10115;BME280;5097;43.260;27.812;2023-01-30T14:18:51;100020.97;;;3.76;63.38
10115;BME280;5097;43.260;27.812;2023-01-30T14:21:35;100013.63;;;3.59;63.46
10115;BME280;5097;43.260;27.812;2023-01-30T14:24:21;100014.91;;;4.07;63.58
10115;BME280;5097;43.260;27.812;2023-01-30T14:27:23;100017.56;;;4.06;63.94
10115;BME280;5097;43.260;27.812;2023-01-30T14:30:34;100009.81;;;3.71;63.45
10115;BME280;5097;43.260;27.812;2023-01-30T14:33:48;100009.53;;;3.82;63.67
10115;BME280;5097;43.260;27.812;2023-01-30T14:36:35;100012.84;;;3.56;64.14
10115;BME280;5097;43.260;27.812;2023-01-30T14:39:51;100003.09;;;3.28;65.98
10115;BME280;5097;43.260;27.812;2023-01-30T14:42:36;100016.25;;;3.23;66.73
10115;BME280;5097;43.260;27.812;2023-01-30T14:45:41;100013.44;;;2.96;67.05
10115;BME280;5097;43.260;27.812;2023-01-30T14:48:29;100012.38;;;3.04;67.42
10115;BME280;5097;43.260;27.812;2023-01-30T14:51:20;100015.34;;;3.26;67.13
10115;BME280;5097;43.260;27.812;2023-01-30T14:54:19;100006.41;;;2.98;66.70
10115;BME280;5097;43.260;27.812;2023-01-30T14:57:18;100014.19;;;3.01;66.29